Ana Sayfa
METAR-TAF:

METAR-TAF

Havaalanları :

Columbia, Güney Carolina, Amerika Birleşik Devletleri

Enlem: 33-56-31N, Boylam: 081-07-05W, yükseklik: 71 m

Güncel hava durumu gözlemi

Rapor saat 02:56 UTC de 16 dakika önce yapıldı.
Rüzgar doğudan 8 kt
Sıcaklık 10°C
Nem 66%
Basınç 1027 hPa
Görüş mesafesi: 16.1 km
20000 ft yükseklikte parçalı bulutlu

METAR: KCAE 080256Z 08008KT 10SM SCT200 10/04 A3034 RMK AO2 SLP275 T01000039 51014

Saat: 22:12 (03:12 UTC)

Tahmin

Rapor saat 02:37 UTC de 35 dakika önce yapıldı.
Ayın 08'si saat 03 UTC'den ayın 08'si saat 24 UTC'ye kadar geçerli Tahmin
Rüzgar doğu/kuzeydoğudan 5 kt
Görüş mesafesi: 10 km
7000 ft yükseklikte parçalı bulutlu
Ayın 08'si saat 1400 UTC'den
Rüzgar doğu/kuzeydoğudan 10 kt
Görüş mesafesi: 10 km
5000 ft yükseklikte parçalı bulutlu

TAF: KCAE 080237Z 0803/0824 06005KT P6SM SCT070 FM081400 06010KT P6SM SCT050

4.000'den fazla havaalanı için hava durumu gözlemleri ve tahminleri (METAR ve TAF raporları).

Kullanılabilir istasyonlar harita üzerinde sarı ve kırmızı noktalarla gösterilir.

İstasyonun adını görmek için fareyi noktanın üzerinde gezdirin.

Sonrasında hava gözlem ve tahminlerini görmek için tıklayın.

Haritayı değiştirmek için: yaklaştırmak için siyah artı işaretli yeşil düğmeye ve uzaklaştırmak için de eksi işaretli düğmeye hızla tıklayın; bitişik haritalar için yeşil okları kullanın.


METAR-TAF: